Time;durP1;ratioP1;P1;durP2;ratioP2;P2;SDS_P1;SDS_P2;PMS_P1;PMS_P2;Temp;Humidity;BMP_temperature;BMP_pressure;BME280_temperature;BME280_humidity;BME280_pressure;Samples;Min_cycle;Max_cycle;Signal;HPM_P1;HPM_P2
2023/12/19 00:01:53;;;;;;;48.97;23.50;;;;;;;5.24;100.00;100592.00;4235254;28;20243;-73
2023/12/19 00:04:20;;;;;;;54.43;24.30;;;;;;;5.26;100.00;100591.88;4237809;28;22091;-72
2023/12/19 00:06:47;;;;;;;47.57;23.07;;;;;;;5.27;100.00;100598.13;4233578;28;21105;-71
2023/12/19 00:09:14;;;;;;;49.57;23.57;;;;;;;5.30;100.00;100584.47;4241757;28;20878;-72
2023/12/19 00:11:40;;;;;;;51.20;22.90;;;;;;;5.17;100.00;100590.72;4236332;28;20258;-70
2023/12/19 00:14:08;;;;;;;47.50;22.23;;;;;;;5.18;100.00;100576.34;4231368;28;21151;-70
2023/12/19 00:16:36;;;;;;;52.90;23.40;;;;;;;5.10;100.00;100569.81;4239242;28;20227;-70
2023/12/19 00:19:03;;;;;;;51.57;22.03;;;;;;;5.16;100.00;100562.16;4236730;28;21165;-72
2023/12/19 00:21:30;;;;;;;47.57;22.13;;;;;;;5.20;100.00;100563.69;4219699;28;20247;-71
2023/12/19 00:23:56;;;;;;;46.80;20.53;;;;;;;5.16;100.00;100542.53;4240322;28;21463;-70
2023/12/19 00:26:23;;;;;;;42.47;20.93;;;;;;;5.24;100.00;100543.69;4234448;28;20259;-71
2023/12/19 00:28:50;;;;;;;40.73;20.37;;;;;;;5.23;100.00;100549.19;4222521;28;20406;-71
2023/12/19 00:31:20;;;;;;;40.83;19.97;;;;;;;5.26;100.00;100540.06;4231059;28;21187;-70
2023/12/19 00:33:48;;;;;;;41.10;18.63;;;;;;;5.16;100.00;100551.44;4239942;28;20244;-73
2023/12/19 00:36:32;;;;;;;45.23;19.37;;;;;;;5.06;100.00;100540.50;4238743;28;20242;-70
2023/12/19 00:38:59;;;;;;;40.83;18.70;;;;;;;5.16;100.00;100535.34;4229754;28;21304;-73
2023/12/19 00:41:26;;;;;;;38.00;18.10;;;;;;;5.14;100.00;100520.31;4234977;28;22812;-73
2023/12/19 00:43:52;;;;;;;42.90;18.63;;;;;;;5.08;100.00;100511.75;4220311;28;20602;-72
2023/12/19 00:46:19;;;;;;;34.83;17.10;;;;;;;5.10;100.00;100526.88;4232972;28;20238;-72
2023/12/19 00:48:46;;;;;;;34.40;17.67;;;;;;;5.20;100.00;100520.75;4225132;28;25466;-72
2023/12/19 00:51:13;;;;;;;39.33;17.47;;;;;;;5.21;100.00;100490.22;4249177;28;20238;-72
2023/12/19 00:53:41;;;;;;;36.03;17.93;;;;;;;5.21;100.00;100538.53;4238140;28;20304;-72
2023/12/19 00:56:14;;;;;;;37.37;17.07;;;;;;;5.05;100.00;100543.31;4237801;28;20242;-72
2023/12/19 00:58:42;;;;;;;36.90;16.47;;;;;;;5.12;100.00;100530.28;4238771;28;20231;-73
2023/12/19 01:01:09;;;;;;;38.80;15.40;;;;;;;5.11;100.00;100526.75;4230028;28;20614;-70
2023/12/19 01:03:37;;;;;;;32.63;15.87;;;;;;;5.08;100.00;100535.03;4231382;28;20293;-70
2023/12/19 01:06:07;;;;;;;32.60;16.17;;;;;;;5.07;100.00;100535.97;4247331;28;20242;-70
2023/12/19 01:08:33;;;;;;;35.37;14.17;;;;;;;5.12;100.00;100524.94;4229444;28;20397;-73
2023/12/19 01:11:00;;;;;;;29.63;14.97;;;;;;;5.04;100.00;100510.22;4232035;28;20239;-70
2023/12/19 01:13:26;;;;;;;35.23;14.73;;;;;;;5.19;100.00;100510.09;4232243;28;20362;-72
2023/12/19 01:15:53;;;;;;;31.43;14.30;;;;;;;5.07;100.00;100496.63;4226004;28;20234;-71
2023/12/19 01:18:20;;;;;;;38.00;13.53;;;;;;;5.11;100.00;100491.00;4233799;28;20231;-71
2023/12/19 01:20:47;;;;;;;27.13;13.00;;;;;;;5.07;100.00;100506.47;4229480;28;20748;-71
2023/12/19 01:23:15;;;;;;;31.27;13.07;;;;;;;5.05;100.00;100495.84;4237533;28;20635;-73
2023/12/19 01:25:42;;;;;;;31.13;13.80;;;;;;;5.03;100.00;100483.53;4235472;28;20294;-70
2023/12/19 01:28:10;;;;;;;26.63;13.03;;;;;;;4.87;100.00;100505.25;4227464;28;20318;-72
2023/12/19 01:30:39;;;;;;;29.80;14.50;;;;;;;4.78;100.00;100493.31;4234175;28;21135;-70
2023/12/19 01:33:08;;;;;;;27.57;13.57;;;;;;;4.79;100.00;100499.56;4235564;28;20622;-70
2023/12/19 01:35:35;;;;;;;27.47;12.80;;;;;;;4.65;100.00;100493.31;4237161;28;20230;-70
2023/12/19 01:38:02;;;;;;;30.67;15.13;;;;;;;4.59;100.00;100493.75;4254720;28;26079;-73
2023/12/19 01:40:28;;;;;;;28.27;13.03;;;;;;;4.64;100.00;100496.13;4237956;28;20235;-74
2023/12/19 01:42:55;;;;;;;29.10;13.60;;;;;;;4.60;100.00;100490.13;4231925;28;20233;-74
2023/12/19 01:45:25;;;;;;;30.83;12.73;;;;;;;4.57;100.00;100496.56;4235044;28;20249;-71
2023/12/19 01:47:51;;;;;;;28.50;12.20;;;;;;;4.58;100.00;100492.91;4228103;28;20461;-72
2023/12/19 01:50:18;;;;;;;27.57;12.70;;;;;;;4.62;100.00;100477.47;4235338;28;20247;-70
2023/12/19 01:52:56;;;;;;;28.77;12.50;;;;;;;4.72;100.00;100469.63;4239281;28;20236;-73
2023/12/19 01:55:24;;;;;;;24.07;12.10;;;;;;;4.60;100.00;100466.84;4242004;28;20242;-71
2023/12/19 01:57:51;;;;;;;25.90;11.03;;;;;;;4.60;100.00;100468.66;4230541;28;20241;-73
2023/12/19 02:00:20;;;;;;;22.73;11.53;;;;;;;4.54;100.00;100463.75;4229796;28;20476;-71
2023/12/19 02:02:50;;;;;;;24.67;11.30;;;;;;;4.50;100.00;100452.38;4234298;28;20669;-71
2023/12/19 02:05:17;;;;;;;23.20;11.07;;;;;;;4.49;100.00;100466.75;4248422;28;20294;-73
2023/12/19 02:07:44;;;;;;;26.60;11.30;;;;;;;4.46;100.00;100445.50;4234951;28;20245;-71
2023/12/19 02:10:11;;;;;;;22.40;10.20;;;;;;;4.46;100.00;100431.25;4245487;28;20235;-71
2023/12/19 02:12:38;;;;;;;20.87;10.47;;;;;;;4.48;100.00;100440.06;4234913;28;20246;-72
2023/12/19 02:15:06;;;;;;;20.90;9.77;;;;;;;4.52;100.00;100447.78;4235642;28;23554;-70
2023/12/19 02:17:33;;;;;;;23.23;11.07;;;;;;;4.47;100.00;100431.13;4231296;28;25676;-72
2023/12/19 02:20:00;;;;;;;21.70;10.53;;;;;;;4.51;100.00;100431.78;4231864;28;20235;-69
2023/12/19 02:22:30;;;;;;;21.63;9.97;;;;;;;4.49;100.00;100421.16;4214783;28;20854;-71
2023/12/19 02:24:57;;;;;;;24.07;8.53;;;;;;;4.42;100.00;100415.38;4242311;28;20241;-70
2023/12/19 02:27:25;;;;;;;20.70;8.80;;;;;;;4.40;100.00;100416.44;4228794;28;21339;-69
2023/12/19 02:29:51;;;;;;;19.70;8.43;;;;;;;4.41;100.00;100419.03;4226697;28;20238;-72
2023/12/19 02:32:18;;;;;;;20.33;8.53;;;;;;;4.41;100.00;100419.03;4239241;28;20237;-72
2023/12/19 02:34:45;;;;;;;19.40;8.13;;;;;;;4.34;100.00;100420.44;4229958;28;21171;-71
2023/12/19 02:37:12;;;;;;;18.97;8.97;;;;;;;4.31;100.00;100419.78;4236098;28;20226;-71
2023/12/19 02:39:39;;;;;;;19.27;8.60;;;;;;;4.32;100.00;100416.13;4236803;28;20242;-72
2023/12/19 02:42:06;;;;;;;15.17;7.80;;;;;;;4.27;100.00;100401.25;4235597;28;20238;-62
2023/12/19 02:44:32;;;;;;;15.57;7.50;;;;;;;4.28;99.64;100397.59;4236287;28;21753;-71
2023/12/19 02:46:58;;;;;;;16.30;7.80;;;;;;;4.23;99.41;100383.66;4241000;28;20318;-71
2023/12/19 02:49:25;;;;;;;17.63;7.67;;;;;;;4.27;98.63;100395.00;4244630;28;20233;-70
2023/12/19 02:51:52;;;;;;;19.07;6.30;;;;;;;4.28;98.27;100394.03;4237579;28;20437;-68
2023/12/19 02:54:19;;;;;;;14.97;6.87;;;;;;;4.32;97.92;100376.81;4233660;28;20233;-69
2023/12/19 02:56:46;;;;;;;14.50;6.83;;;;;;;4.34;97.24;100379.38;4239330;28;20227;-70
2023/12/19 02:59:12;;;;;;;17.47;6.70;;;;;;;4.38;97.12;100362.97;4242732;28;20227;-69
2023/12/19 03:01:39;;;;;;;15.43;6.30;;;;;;;4.36;96.85;100375.59;4226385;28;20227;-69
2023/12/19 03:04:06;;;;;;;16.00;6.63;;;;;;;4.29;96.62;100363.59;4245109;28;20246;-71
2023/12/19 03:06:32;;;;;;;15.73;6.63;;;;;;;4.33;96.47;100369.59;4236290;28;20238;-69
2023/12/19 03:08:59;;;;;;;14.00;6.77;;;;;;;4.37;96.10;100365.75;4244773;28;20328;-72
2023/12/19 03:11:26;;;;;;;15.33;7.73;;;;;;;4.32;96.29;100373.25;4252027;28;20238;-70
2023/12/19 03:13:53;;;;;;;17.83;7.03;;;;;;;4.20;95.99;100351.72;4237479;28;20709;-70
2023/12/19 03:16:20;;;;;;;12.87;6.47;;;;;;;4.17;96.02;100349.25;4238958;28;21983;-69
2023/12/19 03:18:47;;;;;;;13.10;6.50;;;;;;;4.15;96.38;100340.50;4242031;28;25740;-69
2023/12/19 03:21:14;;;;;;;11.73;6.50;;;;;;;4.16;96.15;100331.47;4250748;28;21847;-71
2023/12/19 03:23:40;;;;;;;16.83;6.57;;;;;;;4.21;95.49;100331.13;4233867;28;20227;-71
2023/12/19 03:26:07;;;;;;;16.03;6.93;;;;;;;4.24;95.24;100318.38;4225724;28;22305;-69
2023/12/19 03:28:35;;;;;;;16.03;6.23;;;;;;;4.31;94.78;100315.25;4242969;28;21266;-68
2023/12/19 03:31:02;;;;;;;12.87;6.00;;;;;;;4.39;93.52;100319.13;4258059;28;22438;-68
2023/12/19 03:33:29;;;;;;;15.20;6.63;;;;;;;4.36;93.56;100319.31;4235566;28;20235;-70
2023/12/19 03:35:56;;;;;;;12.80;6.13;;;;;;;4.40;92.75;100339.59;4232356;28;20234;-70
2023/12/19 03:38:22;;;;;;;14.70;5.83;;;;;;;4.39;92.47;100337.00;4238955;28;20633;-71
2023/12/19 03:40:49;;;;;;;11.57;6.17;;;;;;;4.38;92.48;100330.81;4235043;28;20234;-71
2023/12/19 03:43:15;;;;;;;12.20;6.67;;;;;;;4.43;92.19;100309.03;4229731;28;20368;-68
2023/12/19 03:45:42;;;;;;;15.23;6.37;;;;;;;4.50;92.43;100309.44;4232845;28;20365;-70
2023/12/19 03:48:09;;;;;;;14.83;6.50;;;;;;;4.46;91.73;100322.19;4220947;28;20231;-69
2023/12/19 03:50:35;;;;;;;13.40;6.17;;;;;;;4.49;91.11;100319.31;4208384;28;20840;-71
2023/12/19 03:53:02;;;;;;;12.60;5.57;;;;;;;4.52;90.58;100324.47;4233489;28;20235;-70
2023/12/19 03:55:28;;;;;;;12.07;5.43;;;;;;;4.53;90.63;100330.66;4221555;28;20312;-69
2023/12/19 03:57:55;;;;;;;12.20;6.00;;;;;;;4.52;90.08;100336.97;4224705;28;20430;-70
2023/12/19 04:00:21;;;;;;;12.33;6.30;;;;;;;4.57;89.00;100332.16;4211040;28;21391;-69
2023/12/19 04:02:48;;;;;;;13.20;5.83;;;;;;;4.58;88.82;100332.03;4214120;28;20312;-69
2023/12/19 04:05:14;;;;;;;13.00;6.10;;;;;;;4.57;88.57;100318.75;4236241;28;20374;-72
2023/12/19 04:07:41;;;;;;;15.10;6.47;;;;;;;4.57;87.86;100322.28;4218709;28;20889;-69
2023/12/19 04:10:09;;;;;;;11.37;6.00;;;;;;;4.62;87.71;100331.81;4236844;28;21323;-67
2023/12/19 04:12:35;;;;;;;11.20;6.00;;;;;;;4.60;87.54;100331.94;4238869;28;25738;-68
2023/12/19 04:15:02;;;;;;;11.60;5.30;;;;;;;4.66;86.43;100327.94;4221377;28;20259;-70
2023/12/19 04:17:29;;;;;;;14.43;6.27;;;;;;;4.71;85.70;100341.88;4207912;28;20278;-70
2023/12/19 04:19:55;;;;;;;17.13;6.23;;;;;;;4.73;86.30;100335.41;4218357;28;21603;-71
2023/12/19 04:22:22;;;;;;;11.10;4.90;;;;;;;4.74;85.72;100314.84;4223995;28;20689;-70
2023/12/19 04:24:48;;;;;;;12.47;5.67;;;;;;;4.72;85.82;100303.38;4222311;28;21299;-70
2023/12/19 04:27:15;;;;;;;11.90;5.97;;;;;;;4.73;85.04;100310.44;4246144;28;20254;-71
2023/12/19 04:29:45;;;;;;;17.43;5.87;;;;;;;4.72;84.96;100325.66;4221228;28;21639;-69
2023/12/19 04:32:15;;;;;;;15.27;6.07;;;;;;;4.72;84.57;100332.84;4229048;28;20299;-72
2023/12/19 04:34:42;;;;;;;11.20;5.90;;;;;;;4.75;84.32;100340.69;4220212;28;20234;-71
2023/12/19 04:37:08;;;;;;;14.57;5.77;;;;;;;4.79;83.96;100326.06;4222685;28;20251;-69
2023/12/19 04:39:35;;;;;;;12.83;5.43;;;;;;;4.78;83.66;100313.63;4218167;28;20238;-67
2023/12/19 04:42:01;;;;;;;14.07;5.83;;;;;;;4.76;83.42;100313.75;4229812;28;20245;-69
2023/12/19 04:44:28;;;;;;;14.90;5.50;;;;;;;4.81;83.39;100310.72;4240569;28;20404;-70
2023/12/19 04:46:55;;;;;;;11.73;5.50;;;;;;;4.79;83.10;100315.34;4238959;28;20315;-70
2023/12/19 04:49:21;;;;;;;13.73;6.03;;;;;;;4.78;83.08;100316.31;4255010;28;20962;-70
2023/12/19 04:51:48;;;;;;;12.40;5.30;;;;;;;4.74;82.71;100318.38;4252724;28;21734;-70
2023/12/19 04:54:14;;;;;;;15.47;5.87;;;;;;;4.79;82.61;100322.56;4247283;28;20386;-70
2023/12/19 04:56:42;;;;;;;12.27;5.60;;;;;;;4.79;82.24;100306.47;4234810;28;22365;-68
2023/12/19 04:59:08;;;;;;;15.00;5.73;;;;;;;4.82;82.02;100304.41;4238229;28;20299;-70
2023/12/19 05:01:39;;;;;;;15.40;6.00;;;;;;;4.81;82.52;100302.69;4225795;28;21581;-70
2023/12/19 05:04:06;;;;;;;10.00;5.10;;;;;;;4.84;81.88;100293.56;4242235;28;23609;-70
2023/12/19 05:06:33;;;;;;;11.80;5.60;;;;;;;4.78;82.00;100302.91;4235618;28;20295;-70
2023/12/19 05:09:00;;;;;;;13.07;5.77;;;;;;;4.77;81.56;100290.47;4232704;28;20564;-70
2023/12/19 05:11:26;;;;;;;12.93;5.90;;;;;;;4.74;81.69;100298.75;4238269;28;21521;-70
2023/12/19 05:13:53;;;;;;;12.37;6.00;;;;;;;4.71;81.29;100296.28;4243302;28;20313;-69
2023/12/19 05:16:21;;;;;;;12.67;5.50;;;;;;;4.69;81.92;100296.41;4238223;28;20258;-68
2023/12/19 05:18:47;;;;;;;14.73;5.90;;;;;;;4.72;80.90;100308.72;4235250;28;20227;-69
2023/12/19 05:21:14;;;;;;;13.70;5.53;;;;;;;4.74;80.89;100307.63;4237830;28;20920;-71
2023/12/19 05:23:41;;;;;;;16.47;6.30;;;;;;;4.73;80.98;100300.56;4245671;28;20262;-69
2023/12/19 05:26:08;;;;;;;13.30;5.73;;;;;;;4.82;80.72;100311.56;4233345;28;20261;-70
2023/12/19 05:28:36;;;;;;;18.97;6.23;;;;;;;4.81;80.68;100316.09;4236559;28;20258;-68
2023/12/19 05:31:03;;;;;;;13.93;5.57;;;;;;;4.81;80.09;100324.16;4242967;28;20305;-69
2023/12/19 05:33:31;;;;;;;10.97;5.27;;;;;;;4.85;80.11;100330.97;4255749;28;22402;-68
2023/12/19 05:35:58;;;;;;;10.97;5.43;;;;;;;4.89;80.08;100343.22;4234638;28;20292;-68
2023/12/19 05:38:25;;;;;;;15.07;5.70;;;;;;;4.89;79.29;100323.56;4231163;28;20234;-71
2023/12/19 05:40:56;;;;;;;9.23;5.30;;;;;;;4.89;79.13;100316.38;4236452;28;20239;-68
2023/12/19 05:43:23;;;;;;;12.73;5.77;;;;;;;4.91;78.66;100319.78;4245770;28;20615;-71
2023/12/19 05:45:50;;;;;;;12.20;5.50;;;;;;;4.91;78.62;100295.66;4231596;28;20236;-69
2023/12/19 05:48:17;;;;;;;13.03;5.73;;;;;;;4.92;78.41;100293.84;4235418;28;21191;-71
2023/12/19 05:50:43;;;;;;;11.30;5.67;;;;;;;4.93;78.22;100292.88;4237961;28;21076;-71
2023/12/19 05:53:10;;;;;;;12.97;5.33;;;;;;;4.95;78.47;100290.06;4239916;28;20463;-69
2023/12/19 05:55:36;;;;;;;11.67;4.70;;;;;;;4.97;77.85;100280.09;4230459;28;23513;-70
2023/12/19 05:58:03;;;;;;;10.20;5.10;;;;;;;4.99;77.84;100279.00;4235815;28;20650;-69
2023/12/19 06:00:29;;;;;;;10.87;5.23;;;;;;;5.03;77.87;100268.88;4232202;28;22422;-69
2023/12/19 06:02:56;;;;;;;13.53;5.70;;;;;;;4.97;78.13;100277.41;4238589;28;21073;-69
2023/12/19 06:05:24;;;;;;;12.80;5.37;;;;;;;4.98;77.74;100274.59;4233528;28;22649;-70
2023/12/19 06:07:50;;;;;;;11.33;5.93;;;;;;;4.96;78.19;100255.06;4237286;28;20838;-70
2023/12/19 06:10:17;;;;;;;14.27;5.50;;;;;;;5.00;77.92;100256.56;4230301;28;20359;-69
2023/12/19 06:12:44;;;;;;;15.67;6.27;;;;;;;5.02;78.14;100264.50;4236813;28;20428;-73
2023/12/19 06:15:13;;;;;;;12.97;5.23;;;;;;;5.03;78.20;100260.84;4232114;28;20230;-72
2023/12/19 06:17:42;;;;;;;11.73;5.53;;;;;;;5.01;78.48;100260.09;4224661;28;20261;-71
2023/12/19 06:20:10;;;;;;;12.07;5.73;;;;;;;4.99;78.16;100265.59;4238643;28;20418;-69
2023/12/19 06:22:37;;;;;;;12.10;6.20;;;;;;;5.04;78.00;100275.97;4242273;28;20602;-69
2023/12/19 06:25:05;;;;;;;11.00;5.57;;;;;;;5.01;78.46;100270.81;4221949;28;20234;-70
2023/12/19 06:27:33;;;;;;;12.63;5.43;;;;;;;4.99;78.90;100264.72;4235514;28;20379;-70
2023/12/19 06:30:00;;;;;;;10.90;5.67;;;;;;;5.03;79.00;100274.25;4239013;28;20302;-70
2023/12/19 06:32:42;;;;;;;16.13;5.77;;;;;;;5.01;78.78;100271.69;4245014;28;20298;-68
2023/12/19 06:35:09;;;;;;;11.80;5.40;;;;;;;5.07;79.26;100294.50;4231202;28;20235;-69
2023/12/19 06:37:35;;;;;;;10.67;4.90;;;;;;;5.05;79.64;100283.06;4236801;28;20234;-70
2023/12/19 06:40:03;;;;;;;12.00;5.27;;;;;;;5.04;79.75;100282.19;4227900;28;20415;-70
2023/12/19 06:42:31;;;;;;;13.57;5.73;;;;;;;5.08;79.86;100291.72;4236451;28;20534;-71
2023/12/19 06:44:59;;;;;;;12.57;5.80;;;;;;;5.06;80.00;100272.19;4238932;28;21529;-71
2023/12/19 06:47:26;;;;;;;13.80;6.23;;;;;;;5.06;80.48;100277.56;4238469;28;20246;-72
2023/12/19 06:49:53;;;;;;;13.33;6.07;;;;;;;5.15;79.87;100291.25;4247600;28;21162;-72
2023/12/19 06:52:20;;;;;;;23.13;6.50;;;;;;;5.14;79.88;100282.34;4241825;28;25155;-73
2023/12/19 06:54:48;;;;;;;11.63;5.70;;;;;;;5.18;80.75;100281.16;4234945;28;20240;-71
2023/12/19 06:57:15;;;;;;;14.97;6.03;;;;;;;5.16;82.40;100279.56;4243541;28;20289;-73
2023/12/19 06:59:42;;;;;;;14.70;6.00;;;;;;;5.10;84.40;100274.66;4240036;28;20245;-73
2023/12/19 07:02:08;;;;;;;16.47;6.60;;;;;;;5.01;84.96;100257.41;4240478;28;20353;-75
2023/12/19 07:04:35;;;;;;;19.10;6.43;;;;;;;5.01;84.97;100262.78;4233951;28;20231;-73
2023/12/19 07:07:02;;;;;;;12.40;6.27;;;;;;;5.06;84.98;100264.16;4270956;28;20262;-72
2023/12/19 07:09:29;;;;;;;12.63;6.03;;;;;;;5.03;85.91;100267.06;4251457;28;20281;-71
2023/12/19 07:11:57;;;;;;;13.87;6.47;;;;;;;4.96;86.63;100268.47;4264161;28;20262;-69
2023/12/19 07:14:24;;;;;;;14.33;7.00;;;;;;;4.96;87.24;100265.81;4234238;28;20235;-72
2023/12/19 07:16:50;;;;;;;21.03;7.10;;;;;;;5.01;86.89;100268.13;4246702;28;20626;-70
2023/12/19 07:19:17;;;;;;;15.70;6.50;;;;;;;5.01;87.11;100281.56;4251892;28;20262;-71
2023/12/19 07:21:44;;;;;;;19.13;6.70;;;;;;;4.99;87.44;100287.03;4248994;28;21174;-71
2023/12/19 07:24:11;;;;;;;18.63;6.27;;;;;;;4.97;87.94;100272.03;4248460;28;23264;-70
2023/12/19 07:26:38;;;;;;;17.40;7.10;;;;;;;4.95;87.94;100272.13;4242502;28;20241;-69
2023/12/19 07:29:08;;;;;;;17.07;6.43;;;;;;;4.96;87.64;100284.59;4273146;28;20734;-73
2023/12/19 07:31:35;;;;;;;14.00;6.53;;;;;;;5.02;87.61;100297.53;4236092;28;20237;-70
2023/12/19 07:34:04;;;;;;;18.67;6.70;;;;;;;5.01;87.56;100290.47;4255845;28;20233;-71
2023/12/19 07:36:32;;;;;;;15.17;6.43;;;;;;;5.06;86.96;100292.81;4250886;28;21467;-71
2023/12/19 07:39:00;;;;;;;16.77;7.03;;;;;;;5.11;86.78;100292.44;4259997;28;21096;-70
2023/12/19 07:41:27;;;;;;;19.13;6.27;;;;;;;5.10;86.34;100288.91;4243593;28;22157;-73
2023/12/19 07:43:55;;;;;;;19.07;6.93;;;;;;;5.06;86.48;100285.63;4246604;28;20311;-71
2023/12/19 07:46:22;;;;;;;18.20;6.83;;;;;;;5.10;86.79;100294.28;4251559;28;20232;-71
2023/12/19 07:48:49;;;;;;;13.23;6.50;;;;;;;5.10;86.86;100299.66;4343793;28;20235;-70
2023/12/19 07:51:19;;;;;;;20.53;6.90;;;;;;;5.06;87.08;100295.50;4338384;28;20316;-70
2023/12/19 07:53:46;;;;;;;13.03;6.33;;;;;;;5.12;87.07;100284.31;4346240;28;20238;-71
2023/12/19 07:56:13;;;;;;;13.30;6.73;;;;;;;5.11;87.06;100284.41;4341543;28;20288;-72
2023/12/19 07:58:40;;;;;;;18.33;6.90;;;;;;;5.11;86.62;100290.63;4264563;28;23122;-71
2023/12/19 08:01:11;;;;;;;14.50;6.90;;;;;;;5.08;86.70;100274.75;4300176;28;20344;-71
2023/12/19 08:03:39;;;;;;;14.50;6.60;;;;;;;5.12;86.96;100278.06;4286743;28;21118;-70
2023/12/19 08:06:06;;;;;;;14.63;7.37;;;;;;;5.11;86.57;100284.41;4284433;28;20235;-72
2023/12/19 08:08:32;;;;;;;19.30;7.87;;;;;;;5.16;86.31;100272.34;4306924;28;20255;-74
2023/12/19 08:10:59;;;;;;;12.70;6.17;;;;;;;5.14;86.44;100265.38;4265572;28;20298;-71
2023/12/19 08:13:26;;;;;;;12.87;6.43;;;;;;;5.14;86.85;100270.75;4263929;28;20223;-72
2023/12/19 08:15:55;;;;;;;14.23;6.20;;;;;;;5.23;85.46;100262.84;4264527;28;20467;-73
2023/12/19 08:18:22;;;;;;;15.60;6.70;;;;;;;5.21;85.90;100261.28;4242679;28;21708;-68
2023/12/19 08:20:49;;;;;;;17.73;6.90;;;;;;;5.29;85.20;100258.84;4274082;28;20244;-72
2023/12/19 08:23:15;;;;;;;15.03;7.33;;;;;;;5.19;86.09;100269.44;4308469;28;20337;-73
2023/12/19 08:25:43;;;;;;;14.27;6.90;;;;;;;5.21;86.22;100261.28;4235078;28;20231;-75
2023/12/19 08:28:11;;;;;;;12.10;5.83;;;;;;;5.21;86.54;100274.69;4260484;28;21915;-73
2023/12/19 08:30:39;;;;;;;13.90;6.07;;;;;;;5.27;86.35;100279.56;4260030;28;20238;-73
2023/12/19 08:33:05;;;;;;;16.80;6.17;;;;;;;5.25;86.99;100278.84;4274268;28;22013;-73
2023/12/19 08:35:32;;;;;;;15.53;6.27;;;;;;;5.23;87.52;100260.16;4273987;28;22768;-70
2023/12/19 08:37:59;;;;;;;16.13;6.33;;;;;;;5.28;87.63;100257.13;4288052;28;21224;-74
2023/12/19 08:40:25;;;;;;;14.10;6.40;;;;;;;5.29;87.87;100268.75;4235458;28;20285;-74
2023/12/19 08:42:55;;;;;;;12.87;6.40;;;;;;;5.30;87.52;100251.66;4261549;28;20233;-73
2023/12/19 08:45:23;;;;;;;13.00;6.43;;;;;;;5.33;88.15;100246.06;4283814;28;23002;-71
2023/12/19 08:47:50;;;;;;;12.00;6.27;;;;;;;5.47;87.54;100250.38;4258914;28;20311;-73
2023/12/19 08:50:17;;;;;;;15.20;6.77;;;;;;;5.40;87.89;100244.59;4273988;28;22538;-74
2023/12/19 08:52:44;;;;;;;12.47;6.50;;;;;;;5.42;88.34;100248.03;4255742;28;20818;-73
2023/12/19 08:55:12;;;;;;;12.73;6.23;;;;;;;5.48;87.23;100234.13;4233488;28;20284;-71
2023/12/19 08:57:42;;;;;;;11.97;6.47;;;;;;;5.48;87.68;100246.69;4242168;28;20226;-70
2023/12/19 09:00:18;;;;;;;13.27;6.67;;;;;;;5.46;88.09;100249.50;4251476;28;20253;-71
2023/12/19 09:02:45;;;;;;;13.67;6.70;;;;;;;5.49;87.83;100240.34;4240819;28;20238;-73
2023/12/19 09:05:18;;;;;;;12.47;6.53;;;;;;;5.51;87.33;100228.50;4253699;28;20435;-72
2023/12/19 09:07:47;;;;;;;14.63;6.70;;;;;;;5.58;87.52;100225.38;4257057;28;22106;-72
2023/12/19 09:10:15;;;;;;;13.20;6.53;;;;;;;5.65;86.97;100229.28;4248420;28;20292;-71
2023/12/19 09:12:42;;;;;;;12.40;6.40;;;;;;;5.68;87.01;100237.06;4239910;28;20238;-72
2023/12/19 09:15:10;;;;;;;15.90;6.30;;;;;;;5.66;87.42;100229.16;4246356;28;20552;-72
2023/12/19 09:17:37;;;;;;;15.30;6.47;;;;;;;5.78;86.17;100230.00;4271864;28;22121;-71
2023/12/19 09:20:05;;;;;;;13.93;6.67;;;;;;;5.77;85.96;100217.56;4254490;28;20238;-72
2023/12/19 09:22:32;;;;;;;12.77;6.07;;;;;;;5.68;86.43;100208.41;4260371;28;20770;-72
2023/12/19 09:24:59;;;;;;;11.13;6.10;;;;;;;5.71;86.77;100201.94;4248863;28;20399;-72
2023/12/19 09:27:26;;;;;;;12.33;5.93;;;;;;;5.75;86.06;100215.97;4280239;28;21411;-74
2023/12/19 09:29:53;;;;;;;12.20;6.47;;;;;;;5.75;86.29;100203.38;4281633;28;20323;-74
2023/12/19 09:32:21;;;;;;;13.33;6.47;;;;;;;5.76;86.73;100201.56;4305692;28;20291;-74
2023/12/19 09:34:49;;;;;;;12.90;6.17;;;;;;;5.81;86.27;100202.03;4268788;28;20343;-72
2023/12/19 09:37:17;;;;;;;16.10;6.73;;;;;;;5.95;85.46;100201.78;4251829;28;20625;-73
2023/12/19 09:39:47;;;;;;;13.20;6.20;;;;;;;5.81;85.98;100204.72;4255625;28;20243;-72
2023/12/19 09:42:17;;;;;;;13.87;6.40;;;;;;;5.77;86.43;100190.69;4258758;28;20230;-72
2023/12/19 09:44:44;;;;;;;11.80;5.97;;;;;;;5.85;86.43;100208.91;4299672;28;20238;-73
2023/12/19 09:47:16;;;;;;;12.40;5.63;;;;;;;5.78;86.70;100205.00;4263359;28;20974;-72
2023/12/19 09:49:46;;;;;;;13.97;6.10;;;;;;;5.87;86.38;100196.16;4250848;28;23521;-73
2023/12/19 09:52:14;;;;;;;11.97;5.63;;;;;;;5.93;85.80;100182.25;4286550;28;20368;-71
2023/12/19 09:54:41;;;;;;;11.70;6.20;;;;;;;5.82;86.78;100169.69;4242976;28;20242;-69
2023/12/19 09:57:08;;;;;;;12.30;5.93;;;;;;;5.86;87.63;100186.41;4258999;28;20409;-73
2023/12/19 09:59:36;;;;;;;15.83;6.63;;;;;;;5.90;87.13;100184.31;4243980;28;20225;-72
2023/12/19 10:02:08;;;;;;;16.10;5.73;;;;;;;5.94;87.40;100181.25;4260835;28;20348;-69
2023/12/19 10:04:35;;;;;;;16.17;6.57;;;;;;;5.85;88.19;100174.81;4235710;28;20228;-73
2023/12/19 10:07:02;;;;;;;11.90;6.70;;;;;;;5.89;88.21;100178.09;4252369;28;21601;-73
2023/12/19 10:09:29;;;;;;;14.13;6.50;;;;;;;5.90;88.20;100173.56;4241910;28;20351;-73
2023/12/19 10:12:12;;;;;;;15.67;7.10;;;;;;;5.92;88.41;100164.44;4246087;28;20769;-73
2023/12/19 10:14:39;;;;;;;11.97;6.30;;;;;;;6.00;88.55;100164.69;4244295;28;20301;-74
2023/12/19 10:17:12;;;;;;;13.47;7.10;;;;;;;5.98;89.06;100163.94;4235343;28;20241;-73
2023/12/19 10:19:38;;;;;;;16.47;6.67;;;;;;;5.98;88.70;100163.94;4241589;28;20243;-75
2023/12/19 10:22:10;;;;;;;15.80;6.90;;;;;;;6.07;88.62;100196.44;4268909;28;21061;-72
2023/12/19 10:24:38;;;;;;;13.10;6.93;;;;;;;6.06;88.50;100184.00;4236867;28;21011;-72
2023/12/19 10:27:06;;;;;;;15.53;7.03;;;;;;;6.02;88.42;100178.84;4251641;28;20835;-73
2023/12/19 10:29:40;;;;;;;13.87;6.77;;;;;;;6.06;88.91;100184.00;4254296;28;20296;-72
2023/12/19 10:32:22;;;;;;;15.13;7.53;;;;;;;6.04;89.15;100194.88;4241570;28;20377;-74
2023/12/19 10:34:58;;;;;;;13.07;6.80;;;;;;;6.24;90.03;100184.31;4238717;28;20259;-80
2023/12/19 10:37:27;;;;;;;15.20;7.27;;;;;;;6.31;89.49;100174.75;4242211;28;20462;-78
2023/12/19 10:40:10;;;;;;;13.83;6.97;;;;;;;6.27;89.99;100166.09;4233672;28;20573;-79
2023/12/19 10:42:37;;;;;;;12.97;7.10;;;;;;;6.27;89.20;100160.72;4240563;28;20326;-75
2023/12/19 10:45:05;;;;;;;12.53;6.80;;;;;;;6.16;89.48;100141.91;4247931;28;20288;-74
2023/12/19 10:47:32;;;;;;;15.00;7.03;;;;;;;6.28;88.91;100132.88;4247527;28;20812;-72
2023/12/19 10:49:59;;;;;;;14.30;7.80;;;;;;;6.22;88.90;100119.94;4241553;28;20271;-72
2023/12/19 10:52:28;;;;;;;11.97;6.97;;;;;;;6.18;89.48;100119.34;4239788;28;20692;-73
2023/12/19 10:55:04;;;;;;;13.67;7.53;;;;;;;6.16;89.44;100093.53;4233433;28;20239;-70
2023/12/19 10:57:48;;;;;;;14.47;7.30;;;;;;;6.20;89.89;100084.25;4223698;28;20572;-72
2023/12/19 11:00:22;;;;;;;17.23;7.30;;;;;;;6.28;89.98;100060.28;4241200;28;21956;-73
2023/12/19 11:02:58;;;;;;;16.60;7.67;;;;;;;6.31;89.71;100064.53;4247108;28;20292;-74
2023/12/19 11:05:47;;;;;;;13.93;7.20;;;;;;;6.34;88.91;100059.75;4240387;28;20298;-72
2023/12/19 11:08:18;;;;;;;12.43;6.70;;;;;;;6.42;88.97;100060.94;4234013;28;20234;-72
2023/12/19 11:11:12;;;;;;;17.27;7.20;;;;;;;6.39;89.53;100067.44;4242009;28;20445;-71
2023/12/19 11:13:42;;;;;;;15.50;7.20;;;;;;;6.64;91.46;100074.28;4250494;28;20230;-52
2023/12/19 11:16:22;;;;;;;11.93;6.33;;;;;;;6.63;88.40;100075.25;4243774;28;24019;-69
2023/12/19 11:19:05;;;;;;;10.93;6.63;;;;;;;6.71;88.43;100089.88;4257726;28;20229;-69
2023/12/19 11:21:44;;;;;;;13.40;7.20;;;;;;;6.56;89.55;100103.66;4240369;28;20594;-69
2023/12/19 11:24:18;;;;;;;14.67;7.20;;;;;;;6.69;90.31;100083.78;4247555;28;21742;-54
2023/12/19 11:27:03;;;;;;;16.37;7.00;;;;;;;6.70;89.36;100075.59;4241578;28;20310;-70